sensor_id;sensor_type;location;lat;lon;timestamp;pressure;altitude;pressure_sealevel;temperature;humidity
39769;BME280;38939;47.824;14.642;2023-02-15T00:01:10;98343.09;;;1.13;76.09
39769;BME280;38939;47.824;14.642;2023-02-15T00:02:12;98333.66;;;1.13;75.82
39769;BME280;38939;47.824;14.642;2023-02-15T00:03:15;98337.22;;;1.11;76.88
39769;BME280;38939;47.824;14.642;2023-02-15T00:04:19;98334.66;;;1.11;76.39
39769;BME280;38939;47.824;14.642;2023-02-15T00:05:22;98340.84;;;1.08;75.93
39769;BME280;38939;47.824;14.642;2023-02-15T00:06:24;98339.31;;;1.06;75.88
39769;BME280;38939;47.824;14.642;2023-02-15T00:07:26;98336.75;;;1.06;76.21
39769;BME280;38939;47.824;14.642;2023-02-15T00:08:29;98329.75;;;1.08;76.49
39769;BME280;38939;47.824;14.642;2023-02-15T00:09:32;98332.41;;;1.06;76.31
39769;BME280;38939;47.824;14.642;2023-02-15T00:10:34;98335.09;;;1.05;76.36
39769;BME280;38939;47.824;14.642;2023-02-15T00:11:37;98328.94;;;1.07;76.04
39769;BME280;38939;47.824;14.642;2023-02-15T00:12:44;98332.09;;;1.11;75.81
39769;BME280;38939;47.824;14.642;2023-02-15T00:13:46;98327.88;;;1.10;75.97
39769;BME280;38939;47.824;14.642;2023-02-15T00:14:49;98331.50;;;1.07;76.65
39769;BME280;38939;47.824;14.642;2023-02-15T00:15:51;98329.84;;;1.06;76.13
39769;BME280;38939;47.824;14.642;2023-02-15T00:16:53;98329.03;;;1.06;76.54
39769;BME280;38939;47.824;14.642;2023-02-15T00:17:57;98326.66;;;1.03;77.21
39769;BME280;38939;47.824;14.642;2023-02-15T00:18:59;98324.22;;;1.01;77.33
39769;BME280;38939;47.824;14.642;2023-02-15T00:20:04;98322.47;;;1.02;77.13
39769;BME280;38939;47.824;14.642;2023-02-15T00:21:07;98324.63;;;0.95;77.88
39769;BME280;38939;47.824;14.642;2023-02-15T00:22:11;98324.03;;;0.91;77.32
39769;BME280;38939;47.824;14.642;2023-02-15T00:23:13;98323.81;;;0.94;77.19
39769;BME280;38939;47.824;14.642;2023-02-15T00:24:16;98321.47;;;0.91;78.39
39769;BME280;38939;47.824;14.642;2023-02-15T00:25:19;98325.03;;;0.89;77.79
39769;BME280;38939;47.824;14.642;2023-02-15T00:26:21;98313.75;;;0.91;78.09
39769;BME280;38939;47.824;14.642;2023-02-15T00:27:24;98317.22;;;0.90;77.77
39769;BME280;38939;47.824;14.642;2023-02-15T00:28:26;98312.81;;;0.92;77.94
39769;BME280;38939;47.824;14.642;2023-02-15T00:29:29;98318.66;;;0.94;77.92
39769;BME280;38939;47.824;14.642;2023-02-15T00:30:31;98311.91;;;0.93;77.39
39769;BME280;38939;47.824;14.642;2023-02-15T00:31:34;98316.91;;;0.95;76.96
39769;BME280;38939;47.824;14.642;2023-02-15T00:32:36;98315.19;;;0.95;77.40
39769;BME280;38939;47.824;14.642;2023-02-15T00:33:39;98317.63;;;0.97;77.20
39769;BME280;38939;47.824;14.642;2023-02-15T00:34:42;98318.47;;;0.97;77.22
39769;BME280;38939;47.824;14.642;2023-02-15T00:35:45;98312.91;;;0.91;77.01
39769;BME280;38939;47.824;14.642;2023-02-15T00:36:48;98318.88;;;0.91;77.78
39769;BME280;38939;47.824;14.642;2023-02-15T00:37:50;98321.31;;;0.93;76.95
39769;BME280;38939;47.824;14.642;2023-02-15T00:38:54;98309.44;;;0.92;77.64
39769;BME280;38939;47.824;14.642;2023-02-15T00:39:56;98317.84;;;0.94;77.14
39769;BME280;38939;47.824;14.642;2023-02-15T00:41:00;98313.53;;;0.94;77.36
39769;BME280;38939;47.824;14.642;2023-02-15T00:42:03;98311.75;;;0.95;76.82
39769;BME280;38939;47.824;14.642;2023-02-15T00:43:05;98310.03;;;0.95;76.88
39769;BME280;38939;47.824;14.642;2023-02-15T00:44:08;98312.47;;;0.97;76.37
39769;BME280;38939;47.824;14.642;2023-02-15T00:45:11;98307.66;;;0.92;76.39
39769;BME280;38939;47.824;14.642;2023-02-15T00:46:13;98306.34;;;0.87;77.75
39769;BME280;38939;47.824;14.642;2023-02-15T00:47:16;98314.97;;;0.86;77.85
39769;BME280;38939;47.824;14.642;2023-02-15T00:48:19;98309.84;;;0.86;77.92
39769;BME280;38939;47.824;14.642;2023-02-15T00:49:21;98313.03;;;0.89;77.34
39769;BME280;38939;47.824;14.642;2023-02-15T00:50:26;98307.91;;;0.89;78.39
39769;BME280;38939;47.824;14.642;2023-02-15T00:51:28;98306.94;;;0.90;78.13
39769;BME280;38939;47.824;14.642;2023-02-15T00:52:31;98306.13;;;0.90;78.33
39769;BME280;38939;47.824;14.642;2023-02-15T00:53:33;98308.59;;;0.91;77.90
39769;BME280;38939;47.824;14.642;2023-02-15T00:54:36;98312.50;;;0.84;78.66
39769;BME280;38939;47.824;14.642;2023-02-15T00:55:40;98301.53;;;0.82;77.88
39769;BME280;38939;47.824;14.642;2023-02-15T00:56:43;98305.63;;;0.85;78.48
39769;BME280;38939;47.824;14.642;2023-02-15T00:57:45;98300.19;;;0.89;77.57
39769;BME280;38939;47.824;14.642;2023-02-15T00:58:48;98302.63;;;0.91;78.40
39769;BME280;38939;47.824;14.642;2023-02-15T00:59:50;98301.00;;;0.90;77.60
39769;BME280;38939;47.824;14.642;2023-02-15T01:00:53;98299.97;;;0.92;78.27
39769;BME280;38939;47.824;14.642;2023-02-15T01:01:55;98305.00;;;0.94;77.60
39769;BME280;38939;47.824;14.642;2023-02-15T01:02:58;98300.66;;;0.94;77.92
39769;BME280;38939;47.824;14.642;2023-02-15T01:04:01;98298.81;;;0.96;77.51
39769;BME280;38939;47.824;14.642;2023-02-15T01:05:03;98296.97;;;0.98;76.98
39769;BME280;38939;47.824;14.642;2023-02-15T01:06:05;98297.69;;;1.00;77.01
39769;BME280;38939;47.824;14.642;2023-02-15T01:07:08;98293.38;;;1.01;77.08
39769;BME280;38939;47.824;14.642;2023-02-15T01:08:10;98286.47;;;1.02;77.36
39769;BME280;38939;47.824;14.642;2023-02-15T01:09:13;98292.34;;;1.04;76.27
39769;BME280;38939;47.824;14.642;2023-02-15T01:10:15;98292.34;;;1.04;77.05
39769;BME280;38939;47.824;14.642;2023-02-15T01:11:19;98290.69;;;1.03;76.93
39769;BME280;38939;47.824;14.642;2023-02-15T01:12:23;98284.81;;;1.00;77.55
39769;BME280;38939;47.824;14.642;2023-02-15T01:13:26;98285.78;;;0.99;77.24
39769;BME280;38939;47.824;14.642;2023-02-15T01:14:28;98284.13;;;0.98;77.52
39769;BME280;38939;47.824;14.642;2023-02-15T01:15:31;98285.78;;;0.99;76.84
39769;BME280;38939;47.824;14.642;2023-02-15T01:16:37;98286.59;;;1.00;77.68
39769;BME280;38939;47.824;14.642;2023-02-15T01:17:39;98281.44;;;1.00;77.20
39769;BME280;38939;47.824;14.642;2023-02-15T01:18:41;98278.88;;;1.00;77.83
39769;BME280;38939;47.824;14.642;2023-02-15T01:19:44;98283.91;;;1.02;77.72
39769;BME280;38939;47.824;14.642;2023-02-15T01:20:47;98280.31;;;1.04;77.37
39769;BME280;38939;47.824;14.642;2023-02-15T01:21:50;98283.69;;;1.05;77.21
39769;BME280;38939;47.824;14.642;2023-02-15T01:22:52;98275.06;;;1.06;76.94
39769;BME280;38939;47.824;14.642;2023-02-15T01:23:55;98273.31;;;1.06;76.57
39769;BME280;38939;47.824;14.642;2023-02-15T01:24:57;98281.00;;;1.06;76.63
39769;BME280;38939;47.824;14.642;2023-02-15T01:26:03;98277.72;;;1.04;76.97
39769;BME280;38939;47.824;14.642;2023-02-15T01:27:05;98280.84;;;0.96;77.48
39769;BME280;38939;47.824;14.642;2023-02-15T01:28:08;98268.94;;;0.95;76.69
39769;BME280;38939;47.824;14.642;2023-02-15T01:29:11;98274.06;;;0.95;77.06
39769;BME280;38939;47.824;14.642;2023-02-15T01:30:14;98270.78;;;0.93;77.29
39769;BME280;38939;47.824;14.642;2023-02-15T01:31:17;98270.78;;;0.93;77.34
39769;BME280;38939;47.824;14.642;2023-02-15T01:32:21;98276.03;;;0.92;76.99
39769;BME280;38939;47.824;14.642;2023-02-15T01:33:25;98270.78;;;0.93;77.65
39769;BME280;38939;47.824;14.642;2023-02-15T01:34:28;98269.84;;;0.94;77.60
39769;BME280;38939;47.824;14.642;2023-02-15T01:35:30;98279.19;;;0.95;77.03
39769;BME280;38939;47.824;14.642;2023-02-15T01:36:33;98263.78;;;0.95;77.38
39769;BME280;38939;47.824;14.642;2023-02-15T01:37:36;98268.09;;;0.95;77.29
39769;BME280;38939;47.824;14.642;2023-02-15T01:38:38;98260.38;;;0.95;76.51
39769;BME280;38939;47.824;14.642;2023-02-15T01:39:44;98262.13;;;0.94;76.71
39769;BME280;38939;47.824;14.642;2023-02-15T01:40:46;98265.66;;;0.93;76.63
39769;BME280;38939;47.824;14.642;2023-02-15T01:41:49;98256.50;;;0.89;77.37
39769;BME280;38939;47.824;14.642;2023-02-15T01:42:53;98259.06;;;0.89;76.75
39769;BME280;38939;47.824;14.642;2023-02-15T01:43:57;98257.94;;;0.93;76.81
39769;BME280;38939;47.824;14.642;2023-02-15T01:45:00;98260.50;;;0.93;77.22
39769;BME280;38939;47.824;14.642;2023-02-15T01:46:03;98260.94;;;0.87;77.32
39769;BME280;38939;47.824;14.642;2023-02-15T01:47:07;98256.22;;;0.81;77.71
39769;BME280;38939;47.824;14.642;2023-02-15T01:48:21;98254.38;;;0.83;77.12
39769;BME280;38939;47.824;14.642;2023-02-15T01:49:25;98256.72;;;0.86;76.92
39769;BME280;38939;47.824;14.642;2023-02-15T01:51:32;98247.16;;;0.88;77.62
39769;BME280;38939;47.824;14.642;2023-02-15T01:52:36;98250.25;;;0.80;77.42
39769;BME280;38939;47.824;14.642;2023-02-15T01:53:42;98250.47;;;0.77;78.01
39769;BME280;38939;47.824;14.642;2023-02-15T01:54:45;98249.44;;;0.80;78.13
39769;BME280;38939;47.824;14.642;2023-02-15T01:56:11;98249.09;;;0.85;77.38
39769;BME280;38939;47.824;14.642;2023-02-15T01:57:12;98251.66;;;0.85;77.80
39769;BME280;38939;47.824;14.642;2023-02-15T01:58:16;98248.19;;;0.86;78.38
39769;BME280;38939;47.824;14.642;2023-02-15T01:59:20;98247.97;;;0.89;78.05
39769;BME280;38939;47.824;14.642;2023-02-15T02:00:23;98241.81;;;0.91;77.93
39769;BME280;38939;47.824;14.642;2023-02-15T02:01:26;98241.56;;;0.94;77.18
39769;BME280;38939;47.824;14.642;2023-02-15T02:02:29;98252.47;;;0.98;77.64
39769;BME280;38939;47.824;14.642;2023-02-15T02:03:36;98241.38;;;0.97;77.68
39769;BME280;38939;47.824;14.642;2023-02-15T02:04:45;98234.28;;;0.88;78.73
39769;BME280;38939;47.824;14.642;2023-02-15T02:05:49;98228.88;;;0.80;79.37
39769;BME280;38939;47.824;14.642;2023-02-15T02:06:52;98224.69;;;0.79;79.26
39769;BME280;38939;47.824;14.642;2023-02-15T02:07:56;98227.25;;;0.79;78.94
39769;BME280;38939;47.824;14.642;2023-02-15T02:08:59;98233.81;;;0.83;79.70
39769;BME280;38939;47.824;14.642;2023-02-15T02:10:02;98221.88;;;0.82;79.34
39769;BME280;38939;47.824;14.642;2023-02-15T02:11:12;98222.13;;;0.79;79.12
39769;BME280;38939;47.824;14.642;2023-02-15T02:12:17;98226.09;;;0.83;78.73
39769;BME280;38939;47.824;14.642;2023-02-15T02:13:20;98225.78;;;0.88;79.30
39769;BME280;38939;47.824;14.642;2023-02-15T02:14:23;98224.72;;;0.90;78.10
39769;BME280;38939;47.824;14.642;2023-02-15T02:15:33;98225.44;;;0.92;78.87
39769;BME280;38939;47.824;14.642;2023-02-15T02:17:54;98221.25;;;0.91;78.16
39769;BME280;38939;47.824;14.642;2023-02-15T02:20:09;98219.59;;;0.90;78.81
39769;BME280;38939;47.824;14.642;2023-02-15T02:24:02;98216.75;;;0.82;79.01
39769;BME280;38939;47.824;14.642;2023-02-15T02:26:19;98206.38;;;0.84;78.76
39769;BME280;38939;47.824;14.642;2023-02-15T02:29:55;98208.31;;;0.80;78.38
39769;BME280;38939;47.824;14.642;2023-02-15T02:32:43;98200.09;;;0.88;78.47
39769;BME280;38939;47.824;14.642;2023-02-15T02:35:08;98201.13;;;0.85;79.11
39769;BME280;38939;47.824;14.642;2023-02-15T02:36:20;98193.19;;;0.88;79.09
39769;BME280;38939;47.824;14.642;2023-02-15T02:37:28;98200.19;;;0.86;79.01
39769;BME280;38939;47.824;14.642;2023-02-15T02:40:52;98200.09;;;0.88;79.15
39769;BME280;38939;47.824;14.642;2023-02-15T02:42:06;98193.72;;;0.80;79.45
39769;BME280;38939;47.824;14.642;2023-02-15T02:44:28;98193.00;;;0.78;79.25
39769;BME280;38939;47.824;14.642;2023-02-15T02:46:45;98198.88;;;0.80;80.02
39769;BME280;38939;47.824;14.642;2023-02-15T02:47:50;98204.84;;;0.81;79.97
39769;BME280;38939;47.824;14.642;2023-02-15T02:48:54;98193.53;;;0.84;79.92
39769;BME280;38939;47.824;14.642;2023-02-15T02:50:01;98189.91;;;0.86;79.11
39769;BME280;38939;47.824;14.642;2023-02-15T02:51:05;98193.09;;;0.90;78.97
39769;BME280;38939;47.824;14.642;2023-02-15T02:52:33;98192.03;;;0.92;79.61
39769;BME280;38939;47.824;14.642;2023-02-15T02:53:30;98194.94;;;0.88;79.46
39769;BME280;38939;47.824;14.642;2023-02-15T02:54:34;98189.19;;;0.84;79.30
39769;BME280;38939;47.824;14.642;2023-02-15T02:55:57;98194.13;;;0.87;79.80
39769;BME280;38939;47.824;14.642;2023-02-15T02:57:03;98184.16;;;0.83;80.08
39769;BME280;38939;47.824;14.642;2023-02-15T03:00:14;98184.28;;;0.81;80.40
39769;BME280;38939;47.824;14.642;2023-02-15T03:02:21;98190.69;;;0.75;80.02
39769;BME280;38939;47.824;14.642;2023-02-15T03:03:30;98179.25;;;0.79;80.54
39769;BME280;38939;47.824;14.642;2023-02-15T03:04:35;98177.72;;;0.77;80.69
39769;BME280;38939;47.824;14.642;2023-02-15T03:05:40;98186.34;;;0.76;80.87
39769;BME280;38939;47.824;14.642;2023-02-15T03:07:47;98184.50;;;0.78;80.70
39769;BME280;38939;47.824;14.642;2023-02-15T03:08:54;98186.97;;;0.79;80.91
39769;BME280;38939;47.824;14.642;2023-02-15T03:09:58;98180.88;;;0.80;80.18
39769;BME280;38939;47.824;14.642;2023-02-15T03:11:04;98171.31;;;0.83;79.87
39769;BME280;38939;47.824;14.642;2023-02-15T03:12:10;98183.84;;;0.87;80.07
39769;BME280;38939;47.824;14.642;2023-02-15T03:13:14;98181.72;;;0.81;80.65
39769;BME280;38939;47.824;14.642;2023-02-15T03:14:17;98187.56;;;0.83;80.38
39769;BME280;38939;47.824;14.642;2023-02-15T03:15:21;98175.88;;;0.79;80.45
39769;BME280;38939;47.824;14.642;2023-02-15T03:16:24;98183.69;;;0.77;80.40
39769;BME280;38939;47.824;14.642;2023-02-15T03:17:29;98183.34;;;0.82;80.11
39769;BME280;38939;47.824;14.642;2023-02-15T03:18:36;98176.25;;;0.86;79.94
39769;BME280;38939;47.824;14.642;2023-02-15T03:19:40;98179.72;;;0.85;79.99
39769;BME280;38939;47.824;14.642;2023-02-15T03:20:43;98172.75;;;0.87;79.62
39769;BME280;38939;47.824;14.642;2023-02-15T03:21:50;98172.75;;;0.87;79.98
39769;BME280;38939;47.824;14.642;2023-02-15T03:23:02;98171.59;;;0.91;79.92
39769;BME280;38939;47.824;14.642;2023-02-15T03:24:07;98180.13;;;0.91;79.58
39769;BME280;38939;47.824;14.642;2023-02-15T03:25:17;98171.50;;;0.92;79.78
39769;BME280;38939;47.824;14.642;2023-02-15T03:26:21;98172.91;;;0.96;79.59
39769;BME280;38939;47.824;14.642;2023-02-15T03:27:31;98173.63;;;0.98;79.66
39769;BME280;38939;47.824;14.642;2023-02-15T03:28:38;98176.19;;;0.98;79.25
39769;BME280;38939;47.824;14.642;2023-02-15T03:29:46;98166.34;;;0.92;78.99
39769;BME280;38939;47.824;14.642;2023-02-15T03:30:51;98171.72;;;0.89;79.34
39769;BME280;38939;47.824;14.642;2023-02-15T03:31:59;98171.50;;;0.92;79.87
39769;BME280;38939;47.824;14.642;2023-02-15T03:33:03;98167.78;;;0.96;79.90
39769;BME280;38939;47.824;14.642;2023-02-15T03:34:09;98166.84;;;0.97;79.36
39769;BME280;38939;47.824;14.642;2023-02-15T03:35:13;98170.13;;;0.99;79.63
39769;BME280;38939;47.824;14.642;2023-02-15T03:36:20;98156.34;;;1.00;79.22
39769;BME280;38939;47.824;14.642;2023-02-15T03:37:26;98170.75;;;1.03;78.36
39769;BME280;38939;47.824;14.642;2023-02-15T03:41:32;98164.81;;;0.90;79.46
39769;BME280;38939;47.824;14.642;2023-02-15T03:42:36;98160.03;;;0.85;79.38
39769;BME280;38939;47.824;14.642;2023-02-15T03:43:45;98162.59;;;0.85;79.24
39769;BME280;38939;47.824;14.642;2023-02-15T03:45:03;98161.53;;;0.88;79.40
39769;BME280;38939;47.824;14.642;2023-02-15T03:47:23;98162.88;;;0.93;78.23
39769;BME280;38939;47.824;14.642;2023-02-15T03:49:02;98157.72;;;0.93;78.52
39769;BME280;38939;47.824;14.642;2023-02-15T03:50:01;98161.72;;;0.97;78.66
39769;BME280;38939;47.824;14.642;2023-02-15T03:51:07;98171.75;;;1.00;78.63
39769;BME280;38939;47.824;14.642;2023-02-15T03:52:40;98160.66;;;1.00;77.97
39769;BME280;38939;47.824;14.642;2023-02-15T03:53:44;98168.16;;;1.03;77.74
39769;BME280;38939;47.824;14.642;2023-02-15T03:54:48;98165.47;;;1.05;77.78
39769;BME280;38939;47.824;14.642;2023-02-15T03:55:53;98170.59;;;1.05;77.50
39769;BME280;38939;47.824;14.642;2023-02-15T03:56:56;98165.44;;;0.93;77.48
39769;BME280;38939;47.824;14.642;2023-02-15T03:58:20;98167.59;;;0.87;78.47
39769;BME280;38939;47.824;14.642;2023-02-15T03:59:41;98168.03;;;0.80;78.51
39769;BME280;38939;47.824;14.642;2023-02-15T04:04:07;98166.34;;;0.92;78.22
39769;BME280;38939;47.824;14.642;2023-02-15T04:05:10;98172.63;;;0.88;78.92
39769;BME280;38939;47.824;14.642;2023-02-15T04:06:12;98168.53;;;0.86;79.05
39769;BME280;38939;47.824;14.642;2023-02-15T04:07:15;98172.63;;;0.88;78.38
39769;BME280;38939;47.824;14.642;2023-02-15T04:08:17;98164.13;;;0.88;78.44
39769;BME280;38939;47.824;14.642;2023-02-15T04:09:20;98173.56;;;0.87;78.51
39769;BME280;38939;47.824;14.642;2023-02-15T04:10:41;98171.81;;;0.88;78.78
39769;BME280;38939;47.824;14.642;2023-02-15T04:11:56;98164.44;;;0.83;78.44
39769;BME280;38939;47.824;14.642;2023-02-15T04:12:59;98167.22;;;0.80;78.79
39769;BME280;38939;47.824;14.642;2023-02-15T04:14:01;98169.69;;;0.82;78.03
39769;BME280;38939;47.824;14.642;2023-02-15T04:15:23;98166.88;;;0.85;78.29
39769;BME280;38939;47.824;14.642;2023-02-15T04:16:44;98158.38;;;0.84;78.65
39769;BME280;38939;47.824;14.642;2023-02-15T04:17:47;98159.84;;;0.75;79.03
39769;BME280;38939;47.824;14.642;2023-02-15T04:18:49;98160.91;;;0.73;78.42
39769;BME280;38939;47.824;14.642;2023-02-15T04:20:10;98161.81;;;0.72;78.58
39769;BME280;38939;47.824;14.642;2023-02-15T04:21:31;98159.03;;;0.75;78.78
39769;BME280;38939;47.824;14.642;2023-02-15T04:22:52;98169.50;;;0.72;78.63
39769;BME280;38939;47.824;14.642;2023-02-15T04:24:13;98168.81;;;0.70;79.37
39769;BME280;38939;47.824;14.642;2023-02-15T04:25:35;98165.69;;;0.77;79.19
39769;BME280;38939;47.824;14.642;2023-02-15T04:26:37;98172.38;;;0.80;79.29
39769;BME280;38939;47.824;14.642;2023-02-15T04:27:41;98165.38;;;0.82;78.89
39769;BME280;38939;47.824;14.642;2023-02-15T04:28:45;98158.91;;;0.76;78.87
39769;BME280;38939;47.824;14.642;2023-02-15T04:29:47;98158.53;;;0.70;78.76
39769;BME280;38939;47.824;14.642;2023-02-15T04:30:51;98164.38;;;0.72;78.61
39769;BME280;38939;47.824;14.642;2023-02-15T04:31:55;98166.47;;;0.67;79.56
39769;BME280;38939;47.824;14.642;2023-02-15T04:32:58;98160.91;;;0.60;79.63
39769;BME280;38939;47.824;14.642;2023-02-15T04:34:01;98170.19;;;0.50;79.47
39769;BME280;38939;47.824;14.642;2023-02-15T04:35:04;98166.72;;;0.51;79.57
39769;BME280;38939;47.824;14.642;2023-02-15T04:36:07;98170.81;;;0.53;80.34
39769;BME280;38939;47.824;14.642;2023-02-15T04:37:09;98167.28;;;0.54;79.41
39769;BME280;38939;47.824;14.642;2023-02-15T04:38:12;98169.78;;;0.56;79.78
39769;BME280;38939;47.824;14.642;2023-02-15T04:39:15;98170.00;;;0.53;80.05
39769;BME280;38939;47.824;14.642;2023-02-15T04:40:18;98158.88;;;0.52;80.07
39769;BME280;38939;47.824;14.642;2023-02-15T04:41:20;98169.16;;;0.52;79.73
39769;BME280;38939;47.824;14.642;2023-02-15T04:42:23;98165.25;;;0.59;80.00
39769;BME280;38939;47.824;14.642;2023-02-15T04:43:25;98167.47;;;0.64;80.34
39769;BME280;38939;47.824;14.642;2023-02-15T04:44:28;98161.00;;;0.71;79.98
39769;BME280;38939;47.824;14.642;2023-02-15T04:45:30;98163.13;;;0.77;79.71
39769;BME280;38939;47.824;14.642;2023-02-15T04:46:33;98158.59;;;0.81;79.62
39769;BME280;38939;47.824;14.642;2023-02-15T04:47:36;98160.22;;;0.82;78.41
39769;BME280;38939;47.824;14.642;2023-02-15T04:48:39;98163.50;;;0.84;79.18
39769;BME280;38939;47.824;14.642;2023-02-15T04:49:41;98160.94;;;0.84;78.75
39769;BME280;38939;47.824;14.642;2023-02-15T04:50:44;98165.03;;;0.87;78.10
39769;BME280;38939;47.824;14.642;2023-02-15T04:51:46;98155.47;;;0.89;78.41
39769;BME280;38939;47.824;14.642;2023-02-15T04:52:49;98163.06;;;0.90;78.36
39769;BME280;38939;47.824;14.642;2023-02-15T04:53:51;98157.22;;;0.88;77.77
39769;BME280;38939;47.824;14.642;2023-02-15T04:54:58;98165.16;;;0.85;78.47
39769;BME280;38939;47.824;14.642;2023-02-15T04:56:00;98161.97;;;0.82;78.47
39769;BME280;38939;47.824;14.642;2023-02-15T04:57:03;98163.47;;;0.73;78.58
39769;BME280;38939;47.824;14.642;2023-02-15T04:58:06;98156.47;;;0.75;78.21
39769;BME280;38939;47.824;14.642;2023-02-15T04:59:11;98160.47;;;0.79;78.08
39769;BME280;38939;47.824;14.642;2023-02-15T05:00:15;98156.84;;;0.82;77.97
39769;BME280;38939;47.824;14.642;2023-02-15T05:01:18;98160.13;;;0.84;78.46
39769;BME280;38939;47.824;14.642;2023-02-15T05:02:21;98166.19;;;0.83;78.14
39769;BME280;38939;47.824;14.642;2023-02-15T05:03:23;98163.94;;;0.78;77.62
39769;BME280;38939;47.824;14.642;2023-02-15T05:04:26;98163.34;;;0.74;78.62
39769;BME280;38939;47.824;14.642;2023-02-15T05:05:28;98158.91;;;0.76;78.31
39769;BME280;38939;47.824;14.642;2023-02-15T05:06:31;98162.53;;;0.74;78.59
39769;BME280;38939;47.824;14.642;2023-02-15T05:07:33;98164.28;;;0.73;78.59
39769;BME280;38939;47.824;14.642;2023-02-15T05:08:36;98160.06;;;0.72;78.59
39769;BME280;38939;47.824;14.642;2023-02-15T05:09:39;98160.66;;;0.76;78.24
39769;BME280;38939;47.824;14.642;2023-02-15T05:10:41;98156.25;;;0.78;77.85
39769;BME280;38939;47.824;14.642;2023-02-15T05:11:44;98156.25;;;0.78;78.14
39769;BME280;38939;47.824;14.642;2023-02-15T05:12:46;98153.91;;;0.75;77.98
39769;BME280;38939;47.824;14.642;2023-02-15T05:13:49;98154.63;;;0.77;77.91
39769;BME280;38939;47.824;14.642;2023-02-15T05:14:51;98148.06;;;0.73;77.25
39769;BME280;38939;47.824;14.642;2023-02-15T05:15:54;98151.34;;;0.75;77.55
39769;BME280;38939;47.824;14.642;2023-02-15T05:16:56;98146.06;;;0.76;77.10
39769;BME280;38939;47.824;14.642;2023-02-15T05:18:03;98141.88;;;0.75;77.16
39769;BME280;38939;47.824;14.642;2023-02-15T05:19:07;98145.50;;;0.73;77.71
39769;BME280;38939;47.824;14.642;2023-02-15T05:20:10;98146.72;;;0.67;77.31
39769;BME280;38939;47.824;14.642;2023-02-15T05:21:12;98143.03;;;0.58;77.24
39769;BME280;38939;47.824;14.642;2023-02-15T05:22:15;98150.03;;;0.56;77.74
39769;BME280;38939;47.824;14.642;2023-02-15T05:23:17;98145.75;;;0.57;77.96
39769;BME280;38939;47.824;14.642;2023-02-15T05:24:20;98148.41;;;0.55;78.19
39769;BME280;38939;47.824;14.642;2023-02-15T05:25:40;98146.88;;;0.53;77.89
39769;BME280;38939;47.824;14.642;2023-02-15T05:27:02;98153.53;;;0.55;78.30
39769;BME280;38939;47.824;14.642;2023-02-15T05:28:23;98145.34;;;0.50;78.23
39769;BME280;38939;47.824;14.642;2023-02-15T05:29:26;98148.03;;;0.49;78.92
39769;BME280;38939;47.824;14.642;2023-02-15T05:30:28;98147.41;;;0.45;78.58
39769;BME280;38939;47.824;14.642;2023-02-15T05:31:31;98150.91;;;0.44;78.79
39769;BME280;38939;47.824;14.642;2023-02-15T05:32:34;98147.75;;;0.41;78.69
39769;BME280;38939;47.824;14.642;2023-02-15T05:33:37;98152.97;;;0.39;79.57
39769;BME280;38939;47.824;14.642;2023-02-15T05:34:40;98153.69;;;0.41;79.22
39769;BME280;38939;47.824;14.642;2023-02-15T05:35:43;98147.41;;;0.45;78.83
39769;BME280;38939;47.824;14.642;2023-02-15T05:36:46;98147.81;;;0.52;78.98
39769;BME280;38939;47.824;14.642;2023-02-15T05:37:49;98152.94;;;0.52;79.44
39769;BME280;38939;47.824;14.642;2023-02-15T05:38:51;98151.31;;;0.51;78.63
39769;BME280;38939;47.824;14.642;2023-02-15T05:39:57;98150.38;;;0.52;78.42
39769;BME280;38939;47.824;14.642;2023-02-15T05:40:59;98152.94;;;0.52;79.45
39769;BME280;38939;47.824;14.642;2023-02-15T05:42:02;98151.19;;;0.52;79.32
39769;BME280;38939;47.824;14.642;2023-02-15T05:43:04;98142.34;;;0.56;79.34
39769;BME280;38939;47.824;14.642;2023-02-15T05:44:07;98145.31;;;0.63;78.99
39769;BME280;38939;47.824;14.642;2023-02-15T05:45:09;98156.19;;;0.67;78.38
39769;BME280;38939;47.824;14.642;2023-02-15T05:46:16;98148.97;;;0.72;78.65
39769;BME280;38939;47.824;14.642;2023-02-15T05:47:18;98147.22;;;0.72;78.02
39769;BME280;38939;47.824;14.642;2023-02-15T05:48:21;98153.19;;;0.73;77.86
39769;BME280;38939;47.824;14.642;2023-02-15T05:49:24;98155.06;;;0.71;78.14
39769;BME280;38939;47.824;14.642;2023-02-15T05:50:27;98155.97;;;0.70;77.41
39769;BME280;38939;47.824;14.642;2023-02-15T05:51:29;98151.78;;;0.69;77.69
39769;BME280;38939;47.824;14.642;2023-02-15T05:52:33;98152.69;;;0.68;77.38
39769;BME280;38939;47.824;14.642;2023-02-15T05:53:36;98154.88;;;0.61;77.48
39769;BME280;38939;47.824;14.642;2023-02-15T05:54:39;98154.75;;;0.63;77.64
39769;BME280;38939;47.824;14.642;2023-02-15T05:55:41;98156.19;;;0.67;78.27
39769;BME280;38939;47.824;14.642;2023-02-15T05:56:44;98161.44;;;0.65;78.29
39769;BME280;38939;47.824;14.642;2023-02-15T05:57:46;98155.59;;;0.63;78.01
39769;BME280;38939;47.824;14.642;2023-02-15T05:58:49;98161.44;;;0.65;78.26
39769;BME280;38939;47.824;14.642;2023-02-15T05:59:51;98161.34;;;0.67;77.56
39769;BME280;38939;47.824;14.642;2023-02-15T06:00:54;98163.91;;;0.67;77.64
39769;BME280;38939;47.824;14.642;2023-02-15T06:01:56;98163.91;;;0.67;77.66
39769;BME280;38939;47.824;14.642;2023-02-15T06:02:59;98162.25;;;0.66;78.00
39769;BME280;38939;47.824;14.642;2023-02-15T06:04:01;98165.63;;;0.66;77.98
39769;BME280;38939;47.824;14.642;2023-02-15T06:05:04;98162.97;;;0.68;77.79
39769;BME280;38939;47.824;14.642;2023-02-15T06:06:07;98165.72;;;0.65;77.32
39769;BME280;38939;47.824;14.642;2023-02-15T06:07:09;98165.72;;;0.65;76.83
39769;BME280;38939;47.824;14.642;2023-02-15T06:08:13;98171.25;;;0.47;77.61
39769;BME280;38939;47.824;14.642;2023-02-15T06:09:17;98166.19;;;0.46;77.77
39769;BME280;38939;47.824;14.642;2023-02-15T06:10:22;98173.81;;;0.47;77.75
39769;BME280;38939;47.824;14.642;2023-02-15T06:11:24;98161.16;;;0.44;77.92
39769;BME280;38939;47.824;14.642;2023-02-15T06:12:27;98164.78;;;0.42;77.67
39769;BME280;38939;47.824;14.642;2023-02-15T06:13:29;98163.97;;;0.41;78.63